To NAV CANADA Home Page Login to a new session Search on AWWS site Disclaimer Vers la page française équivalente Tips FAQ What's new on the site To the Forecasts and Observations / NOTAM section To "File a Flight Plan" website Publications and other links Update of the User's profile FIC Telephone Numbers My Weather Data Folder Route Weather Data Regional Weather Data Local Weather Data To the Forecasts and Observations / NOTAM section
Request Generated 10/19/2018 at 16:01:08 UTC . Weather information available at that time is displayed.

METAR/TAF

LETHBRIDGE/AB    (show WxCam)

METAR CYQL 191500Z 22006KT 25SM FEW160 SCT270 01/M01 A3034 RMK AC1CI3 AC TR SLP308=
METAR CYQL 191400Z 23007KT 60SM FEW160 BKN270 M02/M04 A3033 RMK AC1CI4 SLP302=
METAR CYQL 191300Z 22007KT 15SM FEW160 SCT250 M02/M04 A3033 RMK AC2CI1 SLP300=

TAF CYQL 191147Z 1912/1924 25008KT P6SM SKC
BECMG 1914/1916 VRB03KT
BECMG 1916/1918 14005KT
FM192100 08005KT P6SM FEW250
RMK FCST BASED ON AUTO OBS. NXT FCST BY 191800Z=
Your time UTC time
Weather data provided by Environment Canada and NAV CANADA